sensor_id;sensor_type;location;lat;lon;timestamp;temperature;humidity
39453;DHT22;25154;-33.684;151.102;2022-11-14T00:02:48;24.60;95.50
39453;DHT22;25154;-33.684;151.102;2022-11-14T00:07:52;24.90;95.70
39453;DHT22;25154;-33.684;151.102;2022-11-14T00:12:55;25.10;96.40
39453;DHT22;25154;-33.684;151.102;2022-11-14T00:17:59;25.20;94.50
39453;DHT22;25154;-33.684;151.102;2022-11-14T00:23:02;25.40;92.90
39453;DHT22;25154;-33.684;151.102;2022-11-14T00:28:07;25.60;92.80
39453;DHT22;25154;-33.684;151.102;2022-11-14T00:33:10;26.10;93.60
39453;DHT22;25154;-33.684;151.102;2022-11-14T00:38:14;26.40;91.80
39453;DHT22;25154;-33.684;151.102;2022-11-14T00:43:18;26.30;90.50
39453;DHT22;25154;-33.684;151.102;2022-11-14T00:48:21;26.60;90.80
39453;DHT22;25154;-33.684;151.102;2022-11-14T00:53:24;26.80;87.80
39453;DHT22;25154;-33.684;151.102;2022-11-14T00:58:27;26.60;89.10
39453;DHT22;25154;-33.684;151.102;2022-11-14T01:03:29;27.00;90.70
39453;DHT22;25154;-33.684;151.102;2022-11-14T01:08:32;26.70;90.00
39453;DHT22;25154;-33.684;151.102;2022-11-14T01:13:34;26.60;90.20
39453;DHT22;25154;-33.684;151.102;2022-11-14T01:18:38;26.90;89.90
39453;DHT22;25154;-33.684;151.102;2022-11-14T01:23:41;27.40;88.40
39453;DHT22;25154;-33.684;151.102;2022-11-14T01:28:43;27.70;86.50
39453;DHT22;25154;-33.684;151.102;2022-11-14T01:33:48;27.70;85.00
39453;DHT22;25154;-33.684;151.102;2022-11-14T01:38:54;27.70;85.50
39453;DHT22;25154;-33.684;151.102;2022-11-14T01:43:56;27.80;84.10
39453;DHT22;25154;-33.684;151.102;2022-11-14T01:49:07;28.40;84.40
39453;DHT22;25154;-33.684;151.102;2022-11-14T01:54:32;27.80;86.00
39453;DHT22;25154;-33.684;151.102;2022-11-14T01:59:40;28.10;86.40
39453;DHT22;25154;-33.684;151.102;2022-11-14T02:04:46;27.50;84.30
39453;DHT22;25154;-33.684;151.102;2022-11-14T02:09:49;27.10;85.20
39453;DHT22;25154;-33.684;151.102;2022-11-14T02:14:54;27.80;85.00
39453;DHT22;25154;-33.684;151.102;2022-11-14T02:25:15;29.00;82.50
39453;DHT22;25154;-33.684;151.102;2022-11-14T02:30:21;28.20;81.00
39453;DHT22;25154;-33.684;151.102;2022-11-14T02:35:24;28.40;81.90
39453;DHT22;25154;-33.684;151.102;2022-11-14T02:40:26;29.70;83.70
39453;DHT22;25154;-33.684;151.102;2022-11-14T02:45:28;29.00;79.30
39453;DHT22;25154;-33.684;151.102;2022-11-14T02:50:31;28.90;82.50
39453;DHT22;25154;-33.684;151.102;2022-11-14T02:55:33;28.50;79.90
39453;DHT22;25154;-33.684;151.102;2022-11-14T03:00:36;27.50;81.10
39453;DHT22;25154;-33.684;151.102;2022-11-14T03:05:38;29.10;80.30
39453;DHT22;25154;-33.684;151.102;2022-11-14T03:10:40;29.30;79.60
39453;DHT22;25154;-33.684;151.102;2022-11-14T03:15:42;29.10;80.00
39453;DHT22;25154;-33.684;151.102;2022-11-14T03:20:45;28.80;81.40
39453;DHT22;25154;-33.684;151.102;2022-11-14T03:25:47;27.50;79.90
39453;DHT22;25154;-33.684;151.102;2022-11-14T03:30:49;26.90;82.30
39453;DHT22;25154;-33.684;151.102;2022-11-14T03:35:52;26.90;82.60
39453;DHT22;25154;-33.684;151.102;2022-11-14T03:40:56;28.50;80.70
39453;DHT22;25154;-33.684;151.102;2022-11-14T03:46:00;29.10;80.40
39453;DHT22;25154;-33.684;151.102;2022-11-14T03:51:03;30.90;80.00
39453;DHT22;25154;-33.684;151.102;2022-11-14T03:56:05;29.80;77.50
39453;DHT22;25154;-33.684;151.102;2022-11-14T04:01:07;28.60;79.30
39453;DHT22;25154;-33.684;151.102;2022-11-14T04:06:10;29.70;80.00
39453;DHT22;25154;-33.684;151.102;2022-11-14T04:11:12;28.70;79.60
39453;DHT22;25154;-33.684;151.102;2022-11-14T04:16:14;28.20;80.10
39453;DHT22;25154;-33.684;151.102;2022-11-14T04:21:17;27.90;82.40
39453;DHT22;25154;-33.684;151.102;2022-11-14T04:26:19;29.20;79.60
39453;DHT22;25154;-33.684;151.102;2022-11-14T04:31:22;29.20;78.00
39453;DHT22;25154;-33.684;151.102;2022-11-14T04:36:24;29.00;78.60
39453;DHT22;25154;-33.684;151.102;2022-11-14T04:41:26;29.80;79.30
39453;DHT22;25154;-33.684;151.102;2022-11-14T04:46:29;29.70;77.60
39453;DHT22;25154;-33.684;151.102;2022-11-14T04:51:31;29.40;78.20
39453;DHT22;25154;-33.684;151.102;2022-11-14T04:56:33;29.50;77.90
39453;DHT22;25154;-33.684;151.102;2022-11-14T05:01:36;30.10;78.00
39453;DHT22;25154;-33.684;151.102;2022-11-14T05:06:38;29.90;76.60
39453;DHT22;25154;-33.684;151.102;2022-11-14T05:11:40;29.70;75.90
39453;DHT22;25154;-33.684;151.102;2022-11-14T05:16:43;30.00;75.80
39453;DHT22;25154;-33.684;151.102;2022-11-14T05:21:45;30.50;74.80
39453;DHT22;25154;-33.684;151.102;2022-11-14T05:26:48;29.60;75.40
39453;DHT22;25154;-33.684;151.102;2022-11-14T05:31:50;28.10;76.20
39453;DHT22;25154;-33.684;151.102;2022-11-14T05:36:52;27.10;75.30
39453;DHT22;25154;-33.684;151.102;2022-11-14T05:41:55;26.60;77.60
39453;DHT22;25154;-33.684;151.102;2022-11-14T05:46:57;25.90;78.60
39453;DHT22;25154;-33.684;151.102;2022-11-14T05:51:59;28.90;82.40
39453;DHT22;25154;-33.684;151.102;2022-11-14T05:57:02;25.20;80.40
39453;DHT22;25154;-33.684;151.102;2022-11-14T06:02:04;25.00;79.70
39453;DHT22;25154;-33.684;151.102;2022-11-14T06:07:07;24.80;82.90
39453;DHT22;25154;-33.684;151.102;2022-11-14T06:12:09;24.90;81.50
39453;DHT22;25154;-33.684;151.102;2022-11-14T06:17:11;25.00;82.00
39453;DHT22;25154;-33.684;151.102;2022-11-14T06:22:17;25.20;81.90
39453;DHT22;25154;-33.684;151.102;2022-11-14T06:27:20;26.80;80.20
39453;DHT22;25154;-33.684;151.102;2022-11-14T06:32:23;26.80;80.20
39453;DHT22;25154;-33.684;151.102;2022-11-14T06:37:25;28.20;78.30
39453;DHT22;25154;-33.684;151.102;2022-11-14T06:42:27;28.10;79.00
39453;DHT22;25154;-33.684;151.102;2022-11-14T06:47:29;27.80;77.30
39453;DHT22;25154;-33.684;151.102;2022-11-14T06:52:32;27.40;77.90
39453;DHT22;25154;-33.684;151.102;2022-11-14T06:57:34;27.90;78.50
39453;DHT22;25154;-33.684;151.102;2022-11-14T07:02:37;28.20;76.80
39453;DHT22;25154;-33.684;151.102;2022-11-14T07:07:42;27.80;76.90
39453;DHT22;25154;-33.684;151.102;2022-11-14T07:12:45;27.80;77.50
39453;DHT22;25154;-33.684;151.102;2022-11-14T07:17:48;27.80;78.60
39453;DHT22;25154;-33.684;151.102;2022-11-14T07:22:52;27.20;78.80
39453;DHT22;25154;-33.684;151.102;2022-11-14T07:27:56;26.80;79.50
39453;DHT22;25154;-33.684;151.102;2022-11-14T07:32:59;27.40;81.40
39453;DHT22;25154;-33.684;151.102;2022-11-14T07:38:05;25.50;82.30
39453;DHT22;25154;-33.684;151.102;2022-11-14T07:43:07;26.00;81.60
39453;DHT22;25154;-33.684;151.102;2022-11-14T07:48:10;26.00;81.60
39453;DHT22;25154;-33.684;151.102;2022-11-14T07:53:12;24.30;84.70
39453;DHT22;25154;-33.684;151.102;2022-11-14T07:58:15;23.40;87.30
39453;DHT22;25154;-33.684;151.102;2022-11-14T08:03:18;23.30;87.70
39453;DHT22;25154;-33.684;151.102;2022-11-14T08:08:20;23.00;89.00
39453;DHT22;25154;-33.684;151.102;2022-11-14T08:13:23;22.80;90.10
39453;DHT22;25154;-33.684;151.102;2022-11-14T08:18:25;22.70;89.10
39453;DHT22;25154;-33.684;151.102;2022-11-14T08:23:28;22.60;88.30
39453;DHT22;25154;-33.684;151.102;2022-11-14T08:28:30;22.40;88.90
39453;DHT22;25154;-33.684;151.102;2022-11-14T08:33:32;22.20;90.00
39453;DHT22;25154;-33.684;151.102;2022-11-14T08:38:34;22.00;89.80
39453;DHT22;25154;-33.684;151.102;2022-11-14T08:43:37;21.90;90.00
39453;DHT22;25154;-33.684;151.102;2022-11-14T08:48:40;21.70;90.40
39453;DHT22;25154;-33.684;151.102;2022-11-14T08:53:42;21.50;90.50
39453;DHT22;25154;-33.684;151.102;2022-11-14T08:58:44;21.30;90.70
39453;DHT22;25154;-33.684;151.102;2022-11-14T09:03:47;21.10;91.10
39453;DHT22;25154;-33.684;151.102;2022-11-14T09:08:49;20.90;91.50
39453;DHT22;25154;-33.684;151.102;2022-11-14T09:13:51;20.70;92.20
39453;DHT22;25154;-33.684;151.102;2022-11-14T09:18:54;20.70;92.50
39453;DHT22;25154;-33.684;151.102;2022-11-14T09:23:56;20.70;92.40
39453;DHT22;25154;-33.684;151.102;2022-11-14T09:28:59;20.80;92.40
39453;DHT22;25154;-33.684;151.102;2022-11-14T09:34:02;20.70;92.60
39453;DHT22;25154;-33.684;151.102;2022-11-14T09:39:04;20.50;92.70
39453;DHT22;25154;-33.684;151.102;2022-11-14T09:44:37;20.50;93.10
39453;DHT22;25154;-33.684;151.102;2022-11-14T09:49:45;20.40;93.20
39453;DHT22;25154;-33.684;151.102;2022-11-14T09:55:08;20.40;93.30
39453;DHT22;25154;-33.684;151.102;2022-11-14T10:00:17;20.30;93.70
39453;DHT22;25154;-33.684;151.102;2022-11-14T10:05:44;20.10;93.90
39453;DHT22;25154;-33.684;151.102;2022-11-14T10:11:28;20.00;94.10
39453;DHT22;25154;-33.684;151.102;2022-11-14T10:27:28;19.60;96.20
39453;DHT22;25154;-33.684;151.102;2022-11-14T10:43:34;19.30;97.30
39453;DHT22;25154;-33.684;151.102;2022-11-14T10:48:46;19.20;97.40
39453;DHT22;25154;-33.684;151.102;2022-11-14T10:59:09;18.80;99.20
39453;DHT22;25154;-33.684;151.102;2022-11-14T11:04:35;18.60;99.90
39453;DHT22;25154;-33.684;151.102;2022-11-14T11:09:40;18.40;99.90
39453;DHT22;25154;-33.684;151.102;2022-11-14T11:15:23;14.20;99.50
39453;DHT22;25154;-33.684;151.102;2022-11-14T11:20:34;18.70;99.90
39453;DHT22;25154;-33.684;151.102;2022-11-14T11:25:38;18.60;99.90
39453;DHT22;25154;-33.684;151.102;2022-11-14T11:30:58;18.70;99.90
39453;DHT22;25154;-33.684;151.102;2022-11-14T11:36:10;18.60;99.90
39453;DHT22;25154;-33.684;151.102;2022-11-14T11:41:30;18.50;99.90
39453;DHT22;25154;-33.684;151.102;2022-11-14T11:46:56;18.40;99.90
39453;DHT22;25154;-33.684;151.102;2022-11-14T11:58:12;18.40;99.90
39453;DHT22;25154;-33.684;151.102;2022-11-14T12:03:18;18.40;99.90
39453;DHT22;25154;-33.684;151.102;2022-11-14T12:08:47;18.40;99.90
39453;DHT22;25154;-33.684;151.102;2022-11-14T12:14:02;18.40;99.90
39453;DHT22;25154;-33.684;151.102;2022-11-14T12:30:07;18.00;99.90
39453;DHT22;25154;-33.684;151.102;2022-11-14T12:35:17;17.90;99.90
39453;DHT22;25154;-33.684;151.102;2022-11-14T12:40:28;17.60;99.90
39453;DHT22;25154;-33.684;151.102;2022-11-14T12:50:43;17.70;99.90
39453;DHT22;25154;-33.684;151.102;2022-11-14T13:12:04;17.60;99.90
39453;DHT22;25154;-33.684;151.102;2022-11-14T13:22:41;17.40;99.90
39453;DHT22;25154;-33.684;151.102;2022-11-14T13:27:44;17.20;99.90
39453;DHT22;25154;-33.684;151.102;2022-11-14T13:43:04;16.60;99.90
39453;DHT22;25154;-33.684;151.102;2022-11-14T13:53:43;16.50;99.90
39453;DHT22;25154;-33.684;151.102;2022-11-14T14:10:07;16.20;99.90
39453;DHT22;25154;-33.684;151.102;2022-11-14T14:15:30;16.20;99.90
39453;DHT22;25154;-33.684;151.102;2022-11-14T14:21:02;16.10;99.90
39453;DHT22;25154;-33.684;151.102;2022-11-14T14:26:28;16.10;99.90
39453;DHT22;25154;-33.684;151.102;2022-11-14T14:31:38;16.00;99.90
39453;DHT22;25154;-33.684;151.102;2022-11-14T14:36:52;15.80;99.90
39453;DHT22;25154;-33.684;151.102;2022-11-14T14:41:56;15.60;99.90
39453;DHT22;25154;-33.684;151.102;2022-11-14T14:47:15;15.60;99.90
39453;DHT22;25154;-33.684;151.102;2022-11-14T14:57:29;15.60;99.90
39453;DHT22;25154;-33.684;151.102;2022-11-14T15:02:32;15.50;99.90
39453;DHT22;25154;-33.684;151.102;2022-11-14T15:07:38;15.40;99.90
39453;DHT22;25154;-33.684;151.102;2022-11-14T15:12:41;15.00;99.90
39453;DHT22;25154;-33.684;151.102;2022-11-14T15:17:44;14.70;99.90
39453;DHT22;25154;-33.684;151.102;2022-11-14T15:23:15;14.50;99.90
39453;DHT22;25154;-33.684;151.102;2022-11-14T15:28:28;14.50;99.90
39453;DHT22;25154;-33.684;151.102;2022-11-14T15:33:35;14.60;99.90
39453;DHT22;25154;-33.684;151.102;2022-11-14T15:38:37;14.50;99.90
39453;DHT22;25154;-33.684;151.102;2022-11-14T15:48:45;14.40;99.90
39453;DHT22;25154;-33.684;151.102;2022-11-14T15:53:49;14.30;99.90
39453;DHT22;25154;-33.684;151.102;2022-11-14T15:58:53;14.10;99.90
39453;DHT22;25154;-33.684;151.102;2022-11-14T16:09:09;13.90;99.90
39453;DHT22;25154;-33.684;151.102;2022-11-14T16:14:13;13.70;99.90
39453;DHT22;25154;-33.684;151.102;2022-11-14T16:19:16;13.70;99.90
39453;DHT22;25154;-33.684;151.102;2022-11-14T16:24:22;13.90;99.90
39453;DHT22;25154;-33.684;151.102;2022-11-14T16:29:25;13.90;99.90
39453;DHT22;25154;-33.684;151.102;2022-11-14T16:34:27;13.90;99.90
39453;DHT22;25154;-33.684;151.102;2022-11-14T16:39:30;13.80;99.90
39453;DHT22;25154;-33.684;151.102;2022-11-14T16:44:32;13.70;99.90
39453;DHT22;25154;-33.684;151.102;2022-11-14T16:49:34;13.60;99.90
39453;DHT22;25154;-33.684;151.102;2022-11-14T16:54:37;13.60;99.90
39453;DHT22;25154;-33.684;151.102;2022-11-14T16:59:39;13.60;99.90
39453;DHT22;25154;-33.684;151.102;2022-11-14T17:04:43;13.60;99.90
39453;DHT22;25154;-33.684;151.102;2022-11-14T17:09:46;13.60;99.90
39453;DHT22;25154;-33.684;151.102;2022-11-14T17:14:48;13.50;99.90
39453;DHT22;25154;-33.684;151.102;2022-11-14T17:19:51;13.50;99.90
39453;DHT22;25154;-33.684;151.102;2022-11-14T17:24:53;13.40;99.90
39453;DHT22;25154;-33.684;151.102;2022-11-14T17:29:55;13.50;99.90
39453;DHT22;25154;-33.684;151.102;2022-11-14T17:34:58;13.60;99.90
39453;DHT22;25154;-33.684;151.102;2022-11-14T17:40:00;13.70;99.90
39453;DHT22;25154;-33.684;151.102;2022-11-14T17:45:02;13.70;99.90
39453;DHT22;25154;-33.684;151.102;2022-11-14T17:50:07;13.60;99.90
39453;DHT22;25154;-33.684;151.102;2022-11-14T17:55:10;13.50;99.90
39453;DHT22;25154;-33.684;151.102;2022-11-14T18:00:12;13.40;99.90
39453;DHT22;25154;-33.684;151.102;2022-11-14T18:05:15;13.30;99.90
39453;DHT22;25154;-33.684;151.102;2022-11-14T18:10:17;13.40;99.90
39453;DHT22;25154;-33.684;151.102;2022-11-14T18:15:20;13.30;99.90
39453;DHT22;25154;-33.684;151.102;2022-11-14T18:20:23;13.10;99.90
39453;DHT22;25154;-33.684;151.102;2022-11-14T18:25:25;13.20;99.90
39453;DHT22;25154;-33.684;151.102;2022-11-14T18:30:29;13.00;99.90
39453;DHT22;25154;-33.684;151.102;2022-11-14T18:35:31;13.00;99.90
39453;DHT22;25154;-33.684;151.102;2022-11-14T18:40:34;13.00;99.90
39453;DHT22;25154;-33.684;151.102;2022-11-14T18:45:37;13.00;99.90
39453;DHT22;25154;-33.684;151.102;2022-11-14T18:50:40;12.90;99.90
39453;DHT22;25154;-33.684;151.102;2022-11-14T18:55:43;12.90;99.90
39453;DHT22;25154;-33.684;151.102;2022-11-14T19:00:45;12.90;99.90
39453;DHT22;25154;-33.684;151.102;2022-11-14T19:05:48;12.90;99.90
39453;DHT22;25154;-33.684;151.102;2022-11-14T19:10:51;12.80;99.90
39453;DHT22;25154;-33.684;151.102;2022-11-14T19:15:54;14.10;99.90
39453;DHT22;25154;-33.684;151.102;2022-11-14T19:20:58;12.80;99.90
39453;DHT22;25154;-33.684;151.102;2022-11-14T19:26:01;12.80;99.90
39453;DHT22;25154;-33.684;151.102;2022-11-14T19:31:05;12.90;99.90
39453;DHT22;25154;-33.684;151.102;2022-11-14T19:36:11;12.90;99.90
39453;DHT22;25154;-33.684;151.102;2022-11-14T19:41:16;12.90;99.90
39453;DHT22;25154;-33.684;151.102;2022-11-14T19:46:22;13.00;99.90
39453;DHT22;25154;-33.684;151.102;2022-11-14T19:51:30;13.10;99.90
39453;DHT22;25154;-33.684;151.102;2022-11-14T19:56:33;13.40;99.90
39453;DHT22;25154;-33.684;151.102;2022-11-14T20:01:36;13.80;99.90
39453;DHT22;25154;-33.684;151.102;2022-11-14T20:06:39;14.00;99.90
39453;DHT22;25154;-33.684;151.102;2022-11-14T20:11:45;14.30;99.90
39453;DHT22;25154;-33.684;151.102;2022-11-14T20:16:47;14.20;99.90
39453;DHT22;25154;-33.684;151.102;2022-11-14T20:21:50;14.50;99.90
39453;DHT22;25154;-33.684;151.102;2022-11-14T20:26:53;14.80;99.90
39453;DHT22;25154;-33.684;151.102;2022-11-14T20:31:56;15.10;99.90
39453;DHT22;25154;-33.684;151.102;2022-11-14T20:36:59;15.20;99.90
39453;DHT22;25154;-33.684;151.102;2022-11-14T20:42:01;15.40;99.90
39453;DHT22;25154;-33.684;151.102;2022-11-14T20:47:04;15.60;99.90
39453;DHT22;25154;-33.684;151.102;2022-11-14T20:52:08;15.80;99.90
39453;DHT22;25154;-33.684;151.102;2022-11-14T20:57:11;16.10;99.90
39453;DHT22;25154;-33.684;151.102;2022-11-14T21:02:13;16.50;99.90
39453;DHT22;25154;-33.684;151.102;2022-11-14T21:07:16;16.70;99.90
39453;DHT22;25154;-33.684;151.102;2022-11-14T21:12:19;17.00;99.90
39453;DHT22;25154;-33.684;151.102;2022-11-14T21:17:22;17.20;99.90
39453;DHT22;25154;-33.684;151.102;2022-11-14T21:22:25;17.50;99.90
39453;DHT22;25154;-33.684;151.102;2022-11-14T21:27:35;17.90;99.90
39453;DHT22;25154;-33.684;151.102;2022-11-14T21:32:38;18.50;99.90
39453;DHT22;25154;-33.684;151.102;2022-11-14T21:37:41;18.90;99.90
39453;DHT22;25154;-33.684;151.102;2022-11-14T21:42:43;19.10;99.90
39453;DHT22;25154;-33.684;151.102;2022-11-14T21:47:46;19.30;99.90
39453;DHT22;25154;-33.684;151.102;2022-11-14T21:52:49;19.50;99.90
39453;DHT22;25154;-33.684;151.102;2022-11-14T21:57:54;19.60;99.90
39453;DHT22;25154;-33.684;151.102;2022-11-14T22:02:57;20.00;99.90
39453;DHT22;25154;-33.684;151.102;2022-11-14T22:08:19;20.20;99.90
39453;DHT22;25154;-33.684;151.102;2022-11-14T22:13:22;20.50;99.90
39453;DHT22;25154;-33.684;151.102;2022-11-14T22:18:25;20.50;99.90
39453;DHT22;25154;-33.684;151.102;2022-11-14T22:23:28;20.70;99.90
39453;DHT22;25154;-33.684;151.102;2022-11-14T22:28:31;20.90;99.90
39453;DHT22;25154;-33.684;151.102;2022-11-14T22:33:35;21.10;99.90
39453;DHT22;25154;-33.684;151.102;2022-11-14T22:38:39;21.30;99.90
39453;DHT22;25154;-33.684;151.102;2022-11-14T22:43:42;20.90;99.90
39453;DHT22;25154;-33.684;151.102;2022-11-14T22:48:46;20.80;99.90
39453;DHT22;25154;-33.684;151.102;2022-11-14T22:53:55;21.10;99.90
39453;DHT22;25154;-33.684;151.102;2022-11-14T22:58:58;21.10;99.90
39453;DHT22;25154;-33.684;151.102;2022-11-14T23:04:03;21.50;99.90
39453;DHT22;25154;-33.684;151.102;2022-11-14T23:09:06;21.20;99.90
39453;DHT22;25154;-33.684;151.102;2022-11-14T23:14:10;21.50;99.80
39453;DHT22;25154;-33.684;151.102;2022-11-14T23:19:12;22.10;97.50
39453;DHT22;25154;-33.684;151.102;2022-11-14T23:24:15;22.40;97.50
39453;DHT22;25154;-33.684;151.102;2022-11-14T23:29:17;22.90;96.70
39453;DHT22;25154;-33.684;151.102;2022-11-14T23:34:19;22.30;98.20
39453;DHT22;25154;-33.684;151.102;2022-11-14T23:39:22;21.90;97.70
39453;DHT22;25154;-33.684;151.102;2022-11-14T23:44:24;22.90;98.10
39453;DHT22;25154;-33.684;151.102;2022-11-14T23:49:26;23.60;96.30
39453;DHT22;25154;-33.684;151.102;2022-11-14T23:54:30;23.30;94.40
39453;DHT22;25154;-33.684;151.102;2022-11-14T23:59:33;23.00;95.80
